sensor_id;sensor_type;location;lat;lon;timestamp;pressure;altitude;pressure_sealevel;temperature;humidity
33795;BME280;51430;52.242;21.118;2023-04-06T00:02:03;100938.83;;;3.28;59.72
33795;BME280;51430;52.242;21.118;2023-04-06T00:04:31;100935.16;;;3.24;59.50
33795;BME280;51430;52.242;21.118;2023-04-06T00:06:59;100935.66;;;3.25;59.73
33795;BME280;51430;52.242;21.118;2023-04-06T00:09:27;100935.63;;;3.26;59.73
33795;BME280;51430;52.242;21.118;2023-04-06T00:11:55;100932.55;;;3.25;59.97
33795;BME280;51430;52.242;21.118;2023-04-06T00:14:23;100929.42;;;3.26;59.83
33795;BME280;51430;52.242;21.118;2023-04-06T00:16:51;100929.10;;;3.25;60.03
33795;BME280;51430;52.242;21.118;2023-04-06T00:19:18;100929.24;;;3.26;60.27
33795;BME280;51430;52.242;21.118;2023-04-06T00:21:46;100925.42;;;3.27;60.09
33795;BME280;51430;52.242;21.118;2023-04-06T00:24:14;100923.56;;;3.26;60.07
33795;BME280;51430;52.242;21.118;2023-04-06T00:26:42;100920.23;;;3.23;59.65
33795;BME280;51430;52.242;21.118;2023-04-06T00:29:10;100923.86;;;3.22;59.42
33795;BME280;51430;52.242;21.118;2023-04-06T00:31:38;100922.83;;;3.22;59.41
33795;BME280;51430;52.242;21.118;2023-04-06T00:34:06;100915.25;;;3.22;59.52
33795;BME280;51430;52.242;21.118;2023-04-06T00:36:34;100910.83;;;3.25;59.35
33795;BME280;51430;52.242;21.118;2023-04-06T00:39:02;100909.18;;;3.28;59.27
33795;BME280;51430;52.242;21.118;2023-04-06T00:41:30;100909.36;;;3.28;59.23
33795;BME280;51430;52.242;21.118;2023-04-06T00:43:58;100909.30;;;3.25;59.24
33795;BME280;51430;52.242;21.118;2023-04-06T00:46:26;100907.97;;;3.23;59.21
33795;BME280;51430;52.242;21.118;2023-04-06T00:48:54;100908.60;;;3.25;59.16
33795;BME280;51430;52.242;21.118;2023-04-06T00:51:22;100906.71;;;3.25;59.37
33795;BME280;51430;52.242;21.118;2023-04-06T00:53:50;100903.81;;;3.24;59.37
33795;BME280;51430;52.242;21.118;2023-04-06T00:56:18;100900.55;;;3.24;59.34
33795;BME280;51430;52.242;21.118;2023-04-06T00:58:46;100900.50;;;3.25;59.43
33795;BME280;51430;52.242;21.118;2023-04-06T01:01:13;100897.41;;;3.25;59.55
33795;BME280;51430;52.242;21.118;2023-04-06T01:03:41;100898.62;;;3.25;59.66
33795;BME280;51430;52.242;21.118;2023-04-06T01:06:10;100897.71;;;3.26;59.40
33795;BME280;51430;52.242;21.118;2023-04-06T01:08:37;100898.71;;;3.27;59.15
33795;BME280;51430;52.242;21.118;2023-04-06T01:11:05;100894.02;;;3.28;59.26
33795;BME280;51430;52.242;21.118;2023-04-06T01:13:33;100891.95;;;3.28;59.41
33795;BME280;51430;52.242;21.118;2023-04-06T01:16:02;100888.30;;;3.29;59.43
33795;BME280;51430;52.242;21.118;2023-04-06T01:18:30;100885.58;;;3.28;59.45
33795;BME280;51430;52.242;21.118;2023-04-06T01:20:58;100886.71;;;3.25;59.52
33795;BME280;51430;52.242;21.118;2023-04-06T01:23:27;100886.97;;;3.23;59.54
33795;BME280;51430;52.242;21.118;2023-04-06T01:25:55;100885.80;;;3.22;59.73
33795;BME280;51430;52.242;21.118;2023-04-06T01:28:23;100884.82;;;3.21;59.80
33795;BME280;51430;52.242;21.118;2023-04-06T01:30:51;100884.48;;;3.21;59.81
33795;BME280;51430;52.242;21.118;2023-04-06T01:33:18;100881.87;;;3.21;59.93
33795;BME280;51430;52.242;21.118;2023-04-06T01:35:46;100875.52;;;3.21;59.87
33795;BME280;51430;52.242;21.118;2023-04-06T01:45:33;100864.06;;;3.05;60.38
33795;BME280;51430;52.242;21.118;2023-04-06T01:48:01;100862.39;;;2.94;60.51
33795;BME280;51430;52.242;21.118;2023-04-06T01:50:29;100865.35;;;3.03;60.43
33795;BME280;51430;52.242;21.118;2023-04-06T01:52:56;100865.27;;;3.10;60.29
33795;BME280;51430;52.242;21.118;2023-04-06T01:55:25;100862.91;;;3.13;60.06
33795;BME280;51430;52.242;21.118;2023-04-06T01:57:53;100861.44;;;3.10;60.07
33795;BME280;51430;52.242;21.118;2023-04-06T02:00:21;100862.32;;;3.10;60.12
33795;BME280;51430;52.242;21.118;2023-04-06T02:02:49;100861.07;;;3.07;60.09
33795;BME280;51430;52.242;21.118;2023-04-06T02:05:19;100861.76;;;3.06;60.03
33795;BME280;51430;52.242;21.118;2023-04-06T02:07:47;100860.68;;;3.08;59.91
33795;BME280;51430;52.242;21.118;2023-04-06T02:10:15;100860.27;;;3.09;60.13
33795;BME280;51430;52.242;21.118;2023-04-06T02:12:42;100856.56;;;3.07;60.31
33795;BME280;51430;52.242;21.118;2023-04-06T02:15:10;100856.57;;;3.07;60.22
33795;BME280;51430;52.242;21.118;2023-04-06T02:17:41;100851.42;;;3.06;60.42
33795;BME280;51430;52.242;21.118;2023-04-06T02:20:09;100852.23;;;3.04;60.45
33795;BME280;51430;52.242;21.118;2023-04-06T02:22:37;100852.32;;;3.01;60.53
33795;BME280;51430;52.242;21.118;2023-04-06T02:25:05;100847.33;;;3.01;60.44
33795;BME280;51430;52.242;21.118;2023-04-06T02:27:33;100847.86;;;3.01;60.61
33795;BME280;51430;52.242;21.118;2023-04-06T02:30:04;100843.19;;;2.97;60.57
33795;BME280;51430;52.242;21.118;2023-04-06T02:32:32;100842.88;;;2.91;61.12
33795;BME280;51430;52.242;21.118;2023-04-06T02:35:00;100840.17;;;2.90;61.26
33795;BME280;51430;52.242;21.118;2023-04-06T02:37:28;100838.78;;;2.85;61.44
33795;BME280;51430;52.242;21.118;2023-04-06T02:39:56;100836.21;;;2.81;61.62
33795;BME280;51430;52.242;21.118;2023-04-06T02:42:24;100836.06;;;2.75;61.93
33795;BME280;51430;52.242;21.118;2023-04-06T02:44:52;100834.73;;;2.69;62.06
33795;BME280;51430;52.242;21.118;2023-04-06T02:47:20;100835.77;;;2.60;62.05
33795;BME280;51430;52.242;21.118;2023-04-06T02:49:48;100834.73;;;2.50;62.40
33795;BME280;51430;52.242;21.118;2023-04-06T02:52:16;100831.92;;;2.42;62.72
33795;BME280;51430;52.242;21.118;2023-04-06T02:54:45;100832.59;;;2.37;62.82
33795;BME280;51430;52.242;21.118;2023-04-06T02:57:13;100830.99;;;2.34;63.23
33795;BME280;51430;52.242;21.118;2023-04-06T02:59:40;100834.83;;;2.32;63.43
33795;BME280;51430;52.242;21.118;2023-04-06T03:02:08;100834.59;;;2.30;63.40
33795;BME280;51430;52.242;21.118;2023-04-06T03:04:36;100833.48;;;2.26;63.70
33795;BME280;51430;52.242;21.118;2023-04-06T03:07:04;100834.58;;;2.25;63.69
33795;BME280;51430;52.242;21.118;2023-04-06T03:09:32;100831.83;;;2.20;64.07
33795;BME280;51430;52.242;21.118;2023-04-06T03:12:01;100833.05;;;2.14;64.42
33795;BME280;51430;52.242;21.118;2023-04-06T03:14:29;100833.73;;;2.09;64.48
33795;BME280;51430;52.242;21.118;2023-04-06T03:16:57;100834.84;;;2.07;64.67
33795;BME280;51430;52.242;21.118;2023-04-06T03:19:25;100833.64;;;2.07;64.60
33795;BME280;51430;52.242;21.118;2023-04-06T03:21:52;100837.66;;;2.05;65.00
33795;BME280;51430;52.242;21.118;2023-04-06T03:24:20;100839.44;;;2.03;65.23
33795;BME280;51430;52.242;21.118;2023-04-06T03:26:48;100843.14;;;2.00;65.09
33795;BME280;51430;52.242;21.118;2023-04-06T03:29:16;100842.05;;;1.97;65.56
33795;BME280;51430;52.242;21.118;2023-04-06T03:31:44;100842.43;;;1.95;65.67
33795;BME280;51430;52.242;21.118;2023-04-06T03:34:12;100845.32;;;1.96;65.89
33795;BME280;51430;52.242;21.118;2023-04-06T03:36:40;100843.45;;;1.96;65.84
33795;BME280;51430;52.242;21.118;2023-04-06T03:39:08;100846.01;;;1.92;66.09
33795;BME280;51430;52.242;21.118;2023-04-06T03:41:36;100846.27;;;1.89;66.16
33795;BME280;51430;52.242;21.118;2023-04-06T03:44:05;100843.29;;;1.85;66.67
33795;BME280;51430;52.242;21.118;2023-04-06T03:46:33;100841.23;;;1.85;66.85
33795;BME280;51430;52.242;21.118;2023-04-06T03:49:01;100843.08;;;1.87;66.95
33795;BME280;51430;52.242;21.118;2023-04-06T03:51:29;100840.31;;;1.87;67.04
33795;BME280;51430;52.242;21.118;2023-04-06T03:53:57;100841.42;;;1.90;67.18
33795;BME280;51430;52.242;21.118;2023-04-06T03:56:25;100841.86;;;1.92;67.50
33795;BME280;51430;52.242;21.118;2023-04-06T03:58:53;100836.27;;;1.95;67.37
33795;BME280;51430;52.242;21.118;2023-04-06T04:01:22;100838.59;;;1.98;67.60
33795;BME280;51430;52.242;21.118;2023-04-06T04:03:49;100839.42;;;1.98;67.38
33795;BME280;51430;52.242;21.118;2023-04-06T04:06:18;100835.66;;;1.98;67.42
33795;BME280;51430;52.242;21.118;2023-04-06T04:08:46;100834.70;;;2.01;67.55
33795;BME280;51430;52.242;21.118;2023-04-06T04:11:14;100834.40;;;1.99;67.42
33795;BME280;51430;52.242;21.118;2023-04-06T04:13:44;100840.30;;;1.98;67.58
33795;BME280;51430;52.242;21.118;2023-04-06T04:16:12;100833.02;;;1.99;67.61
33795;BME280;51430;52.242;21.118;2023-04-06T04:18:40;100837.92;;;1.97;67.65
33795;BME280;51430;52.242;21.118;2023-04-06T04:21:08;100830.08;;;1.95;67.70
33795;BME280;51430;52.242;21.118;2023-04-06T04:23:36;100833.23;;;1.93;67.88
33795;BME280;51430;52.242;21.118;2023-04-06T04:26:04;100824.69;;;1.97;67.79
33795;BME280;51430;52.242;21.118;2023-04-06T04:28:32;100822.52;;;2.00;67.68
33795;BME280;51430;52.242;21.118;2023-04-06T04:31:00;100822.80;;;2.07;67.69
33795;BME280;51430;52.242;21.118;2023-04-06T04:33:28;100831.70;;;2.14;67.62
33795;BME280;51430;52.242;21.118;2023-04-06T04:35:56;100826.33;;;2.15;67.43
33795;BME280;51430;52.242;21.118;2023-04-06T04:38:24;100825.79;;;2.20;67.51
33795;BME280;51430;52.242;21.118;2023-04-06T04:40:52;100820.92;;;2.22;67.24
33795;BME280;51430;52.242;21.118;2023-04-06T04:43:20;100816.31;;;2.21;67.13
33795;BME280;51430;52.242;21.118;2023-04-06T04:45:47;100814.05;;;2.22;67.33
33795;BME280;51430;52.242;21.118;2023-04-06T04:48:15;100815.52;;;2.24;67.29
33795;BME280;51430;52.242;21.118;2023-04-06T04:50:43;100817.82;;;2.27;67.14
33795;BME280;51430;52.242;21.118;2023-04-06T04:53:11;100813.77;;;2.35;67.00
33795;BME280;51430;52.242;21.118;2023-04-06T04:55:39;100810.32;;;2.35;66.99
33795;BME280;51430;52.242;21.118;2023-04-06T04:58:06;100809.66;;;2.44;66.64
33795;BME280;51430;52.242;21.118;2023-04-06T05:00:36;100807.49;;;2.47;66.15
33795;BME280;51430;52.242;21.118;2023-04-06T05:03:04;100808.14;;;2.53;66.03
33795;BME280;51430;52.242;21.118;2023-04-06T05:05:33;100808.55;;;2.65;65.79
33795;BME280;51430;52.242;21.118;2023-04-06T05:08:01;100812.50;;;2.70;65.56
33795;BME280;51430;52.242;21.118;2023-04-06T05:10:29;100811.19;;;2.73;65.55
33795;BME280;51430;52.242;21.118;2023-04-06T05:12:57;100818.27;;;2.81;65.60
33795;BME280;51430;52.242;21.118;2023-04-06T05:15:25;100815.42;;;2.93;65.06
33795;BME280;51430;52.242;21.118;2023-04-06T05:17:53;100818.90;;;3.06;64.89
33795;BME280;51430;52.242;21.118;2023-04-06T05:20:21;100820.02;;;3.22;64.48
33795;BME280;51430;52.242;21.118;2023-04-06T05:22:49;100815.59;;;3.29;64.12
33795;BME280;51430;52.242;21.118;2023-04-06T05:25:16;100818.23;;;3.32;63.88
33795;BME280;51430;52.242;21.118;2023-04-06T05:27:44;100818.13;;;3.43;63.71
33795;BME280;51430;52.242;21.118;2023-04-06T05:30:12;100818.20;;;3.59;63.06
33795;BME280;51430;52.242;21.118;2023-04-06T05:32:40;100813.27;;;3.57;62.32
33795;BME280;51430;52.242;21.118;2023-04-06T05:35:10;100812.02;;;3.62;62.86
33795;BME280;51430;52.242;21.118;2023-04-06T05:37:40;100806.75;;;3.86;62.23
33795;BME280;51430;52.242;21.118;2023-04-06T05:40:08;100807.70;;;4.05;61.75
33795;BME280;51430;52.242;21.118;2023-04-06T05:42:38;100806.27;;;4.19;61.30
33795;BME280;51430;52.242;21.118;2023-04-06T05:45:08;100807.64;;;4.35;60.62
33795;BME280;51430;52.242;21.118;2023-04-06T05:47:37;100806.73;;;4.44;60.15
33795;BME280;51430;52.242;21.118;2023-04-06T05:50:05;100807.91;;;4.40;59.99
33795;BME280;51430;52.242;21.118;2023-04-06T05:52:33;100804.23;;;4.53;59.83
33795;BME280;51430;52.242;21.118;2023-04-06T05:55:02;100802.77;;;4.63;59.29
33795;BME280;51430;52.242;21.118;2023-04-06T05:57:30;100797.91;;;4.67;58.80
33795;BME280;51430;52.242;21.118;2023-04-06T05:59:58;100793.19;;;4.73;58.64
33795;BME280;51430;52.242;21.118;2023-04-06T06:02:32;100796.23;;;4.70;58.42
33795;BME280;51430;52.242;21.118;2023-04-06T06:05:00;100796.21;;;4.74;58.03
33795;BME280;51430;52.242;21.118;2023-04-06T06:07:28;100798.10;;;4.90;57.68
33795;BME280;51430;52.242;21.118;2023-04-06T06:09:57;100798.15;;;5.07;57.76
33795;BME280;51430;52.242;21.118;2023-04-06T06:12:25;100796.44;;;5.14;57.07
33795;BME280;51430;52.242;21.118;2023-04-06T06:14:54;100793.30;;;5.11;57.08
33795;BME280;51430;52.242;21.118;2023-04-06T06:17:22;100792.69;;;5.09;57.23
33795;BME280;51430;52.242;21.118;2023-04-06T06:19:50;100791.84;;;5.20;57.11
33795;BME280;51430;52.242;21.118;2023-04-06T06:22:18;100789.14;;;5.26;56.98
33795;BME280;51430;52.242;21.118;2023-04-06T06:24:46;100790.20;;;5.29;56.95
33795;BME280;51430;52.242;21.118;2023-04-06T06:27:14;100793.52;;;5.39;56.56
33795;BME280;51430;52.242;21.118;2023-04-06T06:29:42;100796.06;;;5.40;56.63
33795;BME280;51430;52.242;21.118;2023-04-06T06:32:10;100799.05;;;5.50;56.83
33795;BME280;51430;52.242;21.118;2023-04-06T06:34:38;100800.02;;;5.58;56.74
33795;BME280;51430;52.242;21.118;2023-04-06T06:37:06;100797.34;;;5.35;56.53
33795;BME280;51430;52.242;21.118;2023-04-06T06:39:33;100792.13;;;5.21;56.95
33795;BME280;51430;52.242;21.118;2023-04-06T06:42:01;100790.65;;;5.27;57.26
33795;BME280;51430;52.242;21.118;2023-04-06T06:44:29;100786.28;;;5.17;57.26
33795;BME280;51430;52.242;21.118;2023-04-06T06:46:58;100781.50;;;5.34;57.64
33795;BME280;51430;52.242;21.118;2023-04-06T06:49:27;100784.38;;;5.53;57.39
33795;BME280;51430;52.242;21.118;2023-04-06T06:51:56;100779.09;;;5.59;57.10
33795;BME280;51430;52.242;21.118;2023-04-06T06:54:24;100778.80;;;5.89;57.06
33795;BME280;51430;52.242;21.118;2023-04-06T06:56:52;100777.59;;;6.10;56.23
33795;BME280;51430;52.242;21.118;2023-04-06T06:59:20;100775.47;;;6.37;55.67
33795;BME280;51430;52.242;21.118;2023-04-06T07:01:49;100775.06;;;6.29;55.41
33795;BME280;51430;52.242;21.118;2023-04-06T07:04:18;100780.71;;;6.17;55.80
33795;BME280;51430;52.242;21.118;2023-04-06T07:06:46;100776.72;;;6.37;55.45
33795;BME280;51430;52.242;21.118;2023-04-06T07:09:14;100773.66;;;6.39;55.12
33795;BME280;51430;52.242;21.118;2023-04-06T07:11:42;100776.27;;;6.39;55.40
33795;BME280;51430;52.242;21.118;2023-04-06T07:14:11;100773.86;;;6.48;55.01
33795;BME280;51430;52.242;21.118;2023-04-06T07:16:39;100774.48;;;6.40;55.12
33795;BME280;51430;52.242;21.118;2023-04-06T07:19:07;100772.66;;;6.38;55.19
33795;BME280;51430;52.242;21.118;2023-04-06T07:21:37;100773.20;;;6.15;55.74
33795;BME280;51430;52.242;21.118;2023-04-06T07:24:05;100767.82;;;6.15;55.67
33795;BME280;51430;52.242;21.118;2023-04-06T07:26:33;100770.14;;;6.14;55.69
33795;BME280;51430;52.242;21.118;2023-04-06T07:29:01;100766.58;;;6.22;55.66
33795;BME280;51430;52.242;21.118;2023-04-06T07:31:29;100770.82;;;6.24;55.97
33795;BME280;51430;52.242;21.118;2023-04-06T07:33:58;100774.54;;;6.16;55.90
33795;BME280;51430;52.242;21.118;2023-04-06T07:36:26;100769.63;;;6.23;55.78
33795;BME280;51430;52.242;21.118;2023-04-06T07:38:54;100772.46;;;6.22;55.91
33795;BME280;51430;52.242;21.118;2023-04-06T07:41:22;100772.30;;;6.19;56.35
33795;BME280;51430;52.242;21.118;2023-04-06T07:43:50;100767.59;;;6.36;56.44
33795;BME280;51430;52.242;21.118;2023-04-06T07:46:18;100769.75;;;6.57;55.93
33795;BME280;51430;52.242;21.118;2023-04-06T07:48:46;100771.46;;;6.81;55.42
33795;BME280;51430;52.242;21.118;2023-04-06T07:51:14;100771.88;;;6.95;55.02
33795;BME280;51430;52.242;21.118;2023-04-06T07:53:44;100768.14;;;6.90;55.51
33795;BME280;51430;52.242;21.118;2023-04-06T07:56:12;100766.05;;;7.12;55.00
33795;BME280;51430;52.242;21.118;2023-04-06T07:58:40;100769.26;;;7.08;54.90
33795;BME280;51430;52.242;21.118;2023-04-06T08:01:09;100774.77;;;7.08;54.96
33795;BME280;51430;52.242;21.118;2023-04-06T08:03:37;100766.98;;;6.96;56.14
33795;BME280;51430;52.242;21.118;2023-04-06T08:06:06;100761.67;;;6.63;57.74
33795;BME280;51430;52.242;21.118;2023-04-06T08:08:34;100763.54;;;6.50;59.31
33795;BME280;51430;52.242;21.118;2023-04-06T08:11:02;100755.27;;;6.37;59.52
33795;BME280;51430;52.242;21.118;2023-04-06T08:13:31;100758.27;;;6.42;60.33
33795;BME280;51430;52.242;21.118;2023-04-06T08:15:59;100763.67;;;6.64;59.88
33795;BME280;51430;52.242;21.118;2023-04-06T08:18:27;100763.91;;;6.73;59.84
33795;BME280;51430;52.242;21.118;2023-04-06T08:20:57;100765.20;;;6.78;59.71
33795;BME280;51430;52.242;21.118;2023-04-06T08:23:25;100762.63;;;6.77;59.49
33795;BME280;51430;52.242;21.118;2023-04-06T08:25:53;100761.36;;;6.75;59.45
33795;BME280;51430;52.242;21.118;2023-04-06T08:28:33;100757.85;;;6.76;59.36
33795;BME280;51430;52.242;21.118;2023-04-06T08:31:05;100754.70;;;6.73;59.36
33795;BME280;51430;52.242;21.118;2023-04-06T08:33:34;100755.91;;;6.63;59.84
33795;BME280;51430;52.242;21.118;2023-04-06T08:36:11;100755.28;;;6.46;60.25
33795;BME280;51430;52.242;21.118;2023-04-06T08:38:40;100751.99;;;6.26;60.40
33795;BME280;51430;52.242;21.118;2023-04-06T08:41:10;100753.27;;;6.05;60.84
33795;BME280;51430;52.242;21.118;2023-04-06T08:43:43;100752.41;;;5.88;61.25
33795;BME280;51430;52.242;21.118;2023-04-06T08:46:11;100751.55;;;5.84;61.61
33795;BME280;51430;52.242;21.118;2023-04-06T08:48:45;100748.77;;;5.88;61.95
33795;BME280;51430;52.242;21.118;2023-04-06T08:51:14;100743.34;;;5.86;62.07
33795;BME280;51430;52.242;21.118;2023-04-06T08:53:42;100741.33;;;5.77;63.18
33795;BME280;51430;52.242;21.118;2023-04-06T08:56:11;100743.95;;;5.94;63.26
33795;BME280;51430;52.242;21.118;2023-04-06T08:58:39;100742.34;;;5.99;63.74
33795;BME280;51430;52.242;21.118;2023-04-06T09:01:11;100739.48;;;5.97;64.14
33795;BME280;51430;52.242;21.118;2023-04-06T09:03:40;100739.20;;;5.85;64.99
33795;BME280;51430;52.242;21.118;2023-04-06T09:06:09;100736.69;;;5.70;65.69
33795;BME280;51430;52.242;21.118;2023-04-06T09:08:39;100730.98;;;5.63;66.97
33795;BME280;51430;52.242;21.118;2023-04-06T09:11:08;100726.27;;;5.60;67.35
33795;BME280;51430;52.242;21.118;2023-04-06T09:13:54;100718.94;;;5.58;68.09
33795;BME280;51430;52.242;21.118;2023-04-06T09:16:22;100711.59;;;5.49;68.20
33795;BME280;51430;52.242;21.118;2023-04-06T09:18:51;100708.52;;;5.49;68.27
33795;BME280;51430;52.242;21.118;2023-04-06T09:21:19;100707.02;;;5.51;68.08
33795;BME280;51430;52.242;21.118;2023-04-06T09:24:01;100706.11;;;5.69;67.97
33795;BME280;51430;52.242;21.118;2023-04-06T09:26:29;100703.37;;;5.62;67.85
33795;BME280;51430;52.242;21.118;2023-04-06T09:28:58;100704.10;;;5.40;67.91
33795;BME280;51430;52.242;21.118;2023-04-06T09:31:31;100698.48;;;5.42;68.66
33795;BME280;51430;52.242;21.118;2023-04-06T09:34:02;100697.91;;;5.53;68.91
33795;BME280;51430;52.242;21.118;2023-04-06T09:36:35;100696.31;;;5.47;69.25
33795;BME280;51430;52.242;21.118;2023-04-06T09:39:04;100694.98;;;5.36;70.43
33795;BME280;51430;52.242;21.118;2023-04-06T09:41:34;100693.35;;;5.47;70.69
33795;BME280;51430;52.242;21.118;2023-04-06T09:44:11;100690.88;;;5.56;71.20
33795;BME280;51430;52.242;21.118;2023-04-06T09:46:43;100688.39;;;5.64;71.90
33795;BME280;51430;52.242;21.118;2023-04-06T09:49:30;100684.80;;;5.63;72.13
33795;BME280;51430;52.242;21.118;2023-04-06T09:52:00;100680.60;;;5.40;72.21
33795;BME280;51430;52.242;21.118;2023-04-06T09:54:30;100675.08;;;5.22;72.90
33795;BME280;51430;52.242;21.118;2023-04-06T09:57:26;100676.37;;;5.31;73.27
33795;BME280;51430;52.242;21.118;2023-04-06T10:00:04;100669.58;;;5.32;73.28
33795;BME280;51430;52.242;21.118;2023-04-06T10:05:36;100663.83;;;5.33;74.06
33795;BME280;51430;52.242;21.118;2023-04-06T10:08:15;100657.69;;;5.31;74.14
33795;BME280;51430;52.242;21.118;2023-04-06T10:10:44;100655.63;;;5.31;73.81
33795;BME280;51430;52.242;21.118;2023-04-06T10:13:12;100661.73;;;5.37;73.98
33795;BME280;51430;52.242;21.118;2023-04-06T10:15:41;100656.94;;;5.22;73.64
33795;BME280;51430;52.242;21.118;2023-04-06T10:18:10;100650.55;;;5.05;73.64
33795;BME280;51430;52.242;21.118;2023-04-06T10:25:58;100662.61;;;4.58;75.92
33795;BME280;51430;52.242;21.118;2023-04-06T10:28:35;100664.19;;;4.51;76.69
33795;BME280;51430;52.242;21.118;2023-04-06T10:31:06;100664.61;;;4.45;77.79
33795;BME280;51430;52.242;21.118;2023-04-06T10:33:34;100660.90;;;4.51;78.07
33795;BME280;51430;52.242;21.118;2023-04-06T10:36:13;100654.43;;;4.63;78.12
33795;BME280;51430;52.242;21.118;2023-04-06T10:38:42;100652.70;;;4.60;78.00
33795;BME280;51430;52.242;21.118;2023-04-06T10:41:11;100648.67;;;4.50;77.89
33795;BME280;51430;52.242;21.118;2023-04-06T10:43:41;100643.84;;;4.50;78.39
33795;BME280;51430;52.242;21.118;2023-04-06T10:46:11;100637.94;;;4.51;78.47
33795;BME280;51430;52.242;21.118;2023-04-06T10:51:13;100634.44;;;4.63;78.39
33795;BME280;51430;52.242;21.118;2023-04-06T10:53:43;100630.77;;;4.63;78.25
33795;BME280;51430;52.242;21.118;2023-04-06T10:56:14;100631.29;;;4.60;77.76
33795;BME280;51430;52.242;21.118;2023-04-06T10:58:48;100621.79;;;4.67;77.86
33795;BME280;51430;52.242;21.118;2023-04-06T11:01:19;100625.96;;;4.74;78.26
33795;BME280;51430;52.242;21.118;2023-04-06T11:03:51;100632.73;;;4.94;77.99
33795;BME280;51430;52.242;21.118;2023-04-06T11:06:22;100626.38;;;4.87;77.07
33795;BME280;51430;52.242;21.118;2023-04-06T11:08:51;100621.73;;;4.79;77.01
33795;BME280;51430;52.242;21.118;2023-04-06T11:11:21;100619.86;;;4.71;77.20
33795;BME280;51430;52.242;21.118;2023-04-06T11:16:22;100610.21;;;4.75;77.34
33795;BME280;51430;52.242;21.118;2023-04-06T11:18:57;100610.72;;;4.86;77.09
33795;BME280;51430;52.242;21.118;2023-04-06T11:26:41;100605.54;;;4.89;76.34
33795;BME280;51430;52.242;21.118;2023-04-06T11:29:10;100599.19;;;4.92;76.92
33795;BME280;51430;52.242;21.118;2023-04-06T11:31:59;100599.64;;;4.96;76.42
33795;BME280;51430;52.242;21.118;2023-04-06T11:34:29;100597.81;;;4.91;76.64
33795;BME280;51430;52.242;21.118;2023-04-06T11:37:00;100597.91;;;5.07;76.30
33795;BME280;51430;52.242;21.118;2023-04-06T11:39:43;100599.25;;;5.15;76.11
33795;BME280;51430;52.242;21.118;2023-04-06T11:42:10;100597.65;;;5.05;75.99
33795;BME280;51430;52.242;21.118;2023-04-06T11:44:40;100589.98;;;5.00;76.18
33795;BME280;51430;52.242;21.118;2023-04-06T11:47:10;100586.02;;;4.99;75.82
33795;BME280;51430;52.242;21.118;2023-04-06T11:49:40;100580.89;;;5.05;75.43
33795;BME280;51430;52.242;21.118;2023-04-06T11:52:17;100577.86;;;5.07;75.68
33795;BME280;51430;52.242;21.118;2023-04-06T11:54:47;100575.20;;;5.22;75.46
33795;BME280;51430;52.242;21.118;2023-04-06T11:57:17;100571.95;;;5.21;75.10
33795;BME280;51430;52.242;21.118;2023-04-06T11:59:45;100567.81;;;5.31;74.50
33795;BME280;51430;52.242;21.118;2023-04-06T12:02:13;100563.05;;;5.37;73.63
33795;BME280;51430;52.242;21.118;2023-04-06T12:04:41;100560.23;;;5.38;72.97
33795;BME280;51430;52.242;21.118;2023-04-06T12:07:10;100557.70;;;5.30;72.68
33795;BME280;51430;52.242;21.118;2023-04-06T12:09:54;100556.04;;;5.29;72.97
33795;BME280;51430;52.242;21.118;2023-04-06T12:12:22;100548.48;;;5.07;73.60
33795;BME280;51430;52.242;21.118;2023-04-06T12:14:50;100544.86;;;5.07;73.29
33795;BME280;51430;52.242;21.118;2023-04-06T12:17:20;100545.98;;;5.19;73.23
33795;BME280;51430;52.242;21.118;2023-04-06T12:19:54;100539.96;;;5.25;72.93
33795;BME280;51430;52.242;21.118;2023-04-06T12:22:40;100538.83;;;5.27;72.92
33795;BME280;51430;52.242;21.118;2023-04-06T12:25:08;100538.45;;;5.28;73.01
33795;BME280;51430;52.242;21.118;2023-04-06T12:27:36;100542.09;;;5.28;72.96
33795;BME280;51430;52.242;21.118;2023-04-06T12:30:04;100548.59;;;5.32;73.17
33795;BME280;51430;52.242;21.118;2023-04-06T12:32:32;100550.23;;;5.34;73.31
33795;BME280;51430;52.242;21.118;2023-04-06T12:35:00;100546.89;;;5.18;73.64
33795;BME280;51430;52.242;21.118;2023-04-06T12:37:28;100542.49;;;5.09;74.34
33795;BME280;51430;52.242;21.118;2023-04-06T12:39:56;100538.95;;;5.08;74.21
33795;BME280;51430;52.242;21.118;2023-04-06T12:42:24;100538.84;;;5.20;74.50
33795;BME280;51430;52.242;21.118;2023-04-06T12:44:53;100536.80;;;5.33;74.75
33795;BME280;51430;52.242;21.118;2023-04-06T12:47:21;100536.96;;;5.43;74.67
33795;BME280;51430;52.242;21.118;2023-04-06T12:49:50;100534.98;;;5.34;74.55
33795;BME280;51430;52.242;21.118;2023-04-06T12:52:18;100532.80;;;5.13;75.09
33795;BME280;51430;52.242;21.118;2023-04-06T12:54:47;100535.41;;;5.16;75.71
33795;BME280;51430;52.242;21.118;2023-04-06T12:57:17;100529.88;;;5.13;75.75
33795;BME280;51430;52.242;21.118;2023-04-06T12:59:45;100533.98;;;5.24;75.87
33795;BME280;51430;52.242;21.118;2023-04-06T13:02:14;100531.09;;;5.27;76.12
33795;BME280;51430;52.242;21.118;2023-04-06T13:04:42;100525.30;;;5.31;75.93
33795;BME280;51430;52.242;21.118;2023-04-06T13:07:10;100515.54;;;5.26;76.18
33795;BME280;51430;52.242;21.118;2023-04-06T13:09:38;100517.63;;;5.23;76.00
33795;BME280;51430;52.242;21.118;2023-04-06T13:12:06;100517.09;;;5.20;76.52
33795;BME280;51430;52.242;21.118;2023-04-06T13:14:34;100513.77;;;5.20;76.91
33795;BME280;51430;52.242;21.118;2023-04-06T13:17:02;100511.50;;;5.08;76.75
33795;BME280;51430;52.242;21.118;2023-04-06T13:19:30;100504.84;;;5.06;77.38
33795;BME280;51430;52.242;21.118;2023-04-06T13:21:59;100502.99;;;5.02;77.99
33795;BME280;51430;52.242;21.118;2023-04-06T13:24:26;100499.37;;;4.95;79.06
33795;BME280;51430;52.242;21.118;2023-04-06T13:26:54;100501.59;;;5.02;79.57